sensor_id;sensor_type;location;lat;lon;timestamp;temperature;humidity
7360;DHT22;3720;48.274;7.796;2023-06-22T00:01:44;23.10;99.90
7360;DHT22;3720;48.274;7.796;2023-06-22T00:04:16;23.10;99.90
7360;DHT22;3720;48.274;7.796;2023-06-22T00:06:48;23.20;99.90
7360;DHT22;3720;48.274;7.796;2023-06-22T00:09:20;23.20;99.90
7360;DHT22;3720;48.274;7.796;2023-06-22T00:11:54;23.20;99.90
7360;DHT22;3720;48.274;7.796;2023-06-22T00:14:26;23.20;99.90
7360;DHT22;3720;48.274;7.796;2023-06-22T00:16:57;23.10;99.90
7360;DHT22;3720;48.274;7.796;2023-06-22T00:19:29;23.10;99.90
7360;DHT22;3720;48.274;7.796;2023-06-22T00:22:01;23.10;99.90
7360;DHT22;3720;48.274;7.796;2023-06-22T00:24:34;23.00;99.90
7360;DHT22;3720;48.274;7.796;2023-06-22T00:27:07;22.90;99.90
7360;DHT22;3720;48.274;7.796;2023-06-22T00:29:39;22.90;99.90
7360;DHT22;3720;48.274;7.796;2023-06-22T00:32:11;22.80;99.90
7360;DHT22;3720;48.274;7.796;2023-06-22T00:34:43;22.70;99.90
7360;DHT22;3720;48.274;7.796;2023-06-22T00:37:14;22.70;99.90
7360;DHT22;3720;48.274;7.796;2023-06-22T00:39:46;22.70;99.90
7360;DHT22;3720;48.274;7.796;2023-06-22T00:42:19;22.80;99.90
7360;DHT22;3720;48.274;7.796;2023-06-22T00:44:51;22.80;99.90
7360;DHT22;3720;48.274;7.796;2023-06-22T00:47:23;22.90;99.90
7360;DHT22;3720;48.274;7.796;2023-06-22T00:49:55;22.90;99.90
7360;DHT22;3720;48.274;7.796;2023-06-22T00:52:27;22.90;99.90
7360;DHT22;3720;48.274;7.796;2023-06-22T00:55:02;22.80;99.90
7360;DHT22;3720;48.274;7.796;2023-06-22T00:57:36;22.80;99.90
7360;DHT22;3720;48.274;7.796;2023-06-22T01:00:09;22.70;99.90
7360;DHT22;3720;48.274;7.796;2023-06-22T01:02:47;22.80;99.90
7360;DHT22;3720;48.274;7.796;2023-06-22T01:05:22;22.80;99.90
7360;DHT22;3720;48.274;7.796;2023-06-22T01:08:04;22.90;99.90
7360;DHT22;3720;48.274;7.796;2023-06-22T01:10:51;22.90;99.90
7360;DHT22;3720;48.274;7.796;2023-06-22T01:13:29;22.80;99.90
7360;DHT22;3720;48.274;7.796;2023-06-22T01:16:07;22.70;99.90
7360;DHT22;3720;48.274;7.796;2023-06-22T01:18:42;22.70;99.90
7360;DHT22;3720;48.274;7.796;2023-06-22T01:21:16;22.70;99.90
7360;DHT22;3720;48.274;7.796;2023-06-22T01:24:02;22.70;99.90
7360;DHT22;3720;48.274;7.796;2023-06-22T01:26:42;22.70;99.90
7360;DHT22;3720;48.274;7.796;2023-06-22T01:29:16;22.70;99.90
7360;DHT22;3720;48.274;7.796;2023-06-22T01:31:49;22.60;99.90
7360;DHT22;3720;48.274;7.796;2023-06-22T01:34:23;22.40;99.90
7360;DHT22;3720;48.274;7.796;2023-06-22T01:36:56;22.40;99.90
7360;DHT22;3720;48.274;7.796;2023-06-22T01:39:29;22.40;99.90
7360;DHT22;3720;48.274;7.796;2023-06-22T01:42:02;22.30;99.90
7360;DHT22;3720;48.274;7.796;2023-06-22T01:44:37;22.20;99.90
7360;DHT22;3720;48.274;7.796;2023-06-22T01:47:10;22.30;99.90
7360;DHT22;3720;48.274;7.796;2023-06-22T01:49:44;22.40;99.90
7360;DHT22;3720;48.274;7.796;2023-06-22T01:52:17;22.40;99.90
7360;DHT22;3720;48.274;7.796;2023-06-22T01:54:49;22.40;99.90
7360;DHT22;3720;48.274;7.796;2023-06-22T01:57:21;22.40;99.90
7360;DHT22;3720;48.274;7.796;2023-06-22T01:59:59;22.30;99.90
7360;DHT22;3720;48.274;7.796;2023-06-22T02:02:35;22.20;99.90
7360;DHT22;3720;48.274;7.796;2023-06-22T02:05:09;22.30;99.90
7360;DHT22;3720;48.274;7.796;2023-06-22T02:07:44;22.30;99.90
7360;DHT22;3720;48.274;7.796;2023-06-22T02:10:20;22.40;99.90
7360;DHT22;3720;48.274;7.796;2023-06-22T02:12:54;22.50;99.90
7360;DHT22;3720;48.274;7.796;2023-06-22T02:15:28;22.40;99.90
7360;DHT22;3720;48.274;7.796;2023-06-22T02:18:00;22.30;99.90
7360;DHT22;3720;48.274;7.796;2023-06-22T02:20:33;22.30;99.90
7360;DHT22;3720;48.274;7.796;2023-06-22T02:23:08;22.40;99.90
7360;DHT22;3720;48.274;7.796;2023-06-22T02:25:40;22.40;99.90
7360;DHT22;3720;48.274;7.796;2023-06-22T02:28:14;22.40;99.90
7360;DHT22;3720;48.274;7.796;2023-06-22T02:30:47;22.40;99.90
7360;DHT22;3720;48.274;7.796;2023-06-22T02:33:19;22.40;99.90
7360;DHT22;3720;48.274;7.796;2023-06-22T02:35:51;22.30;99.90
7360;DHT22;3720;48.274;7.796;2023-06-22T02:38:23;22.20;99.90
7360;DHT22;3720;48.274;7.796;2023-06-22T02:40:56;22.20;99.90
7360;DHT22;3720;48.274;7.796;2023-06-22T02:43:28;22.20;99.90
7360;DHT22;3720;48.274;7.796;2023-06-22T02:46:02;22.20;99.90
7360;DHT22;3720;48.274;7.796;2023-06-22T02:48:34;22.20;99.90
7360;DHT22;3720;48.274;7.796;2023-06-22T02:51:06;22.30;99.90
7360;DHT22;3720;48.274;7.796;2023-06-22T02:53:38;22.30;99.90
7360;DHT22;3720;48.274;7.796;2023-06-22T02:56:10;22.30;99.90
7360;DHT22;3720;48.274;7.796;2023-06-22T02:58:43;22.20;99.90
7360;DHT22;3720;48.274;7.796;2023-06-22T03:01:16;22.20;99.90
7360;DHT22;3720;48.274;7.796;2023-06-22T03:03:54;22.20;99.90
7360;DHT22;3720;48.274;7.796;2023-06-22T03:06:26;22.10;99.90
7360;DHT22;3720;48.274;7.796;2023-06-22T03:09:00;22.10;99.90
7360;DHT22;3720;48.274;7.796;2023-06-22T03:11:34;22.10;99.90
7360;DHT22;3720;48.274;7.796;2023-06-22T03:14:06;22.10;99.90
7360;DHT22;3720;48.274;7.796;2023-06-22T03:16:39;22.00;99.90
7360;DHT22;3720;48.274;7.796;2023-06-22T03:19:12;22.00;99.90
7360;DHT22;3720;48.274;7.796;2023-06-22T03:21:44;22.00;99.90
7360;DHT22;3720;48.274;7.796;2023-06-22T03:24:16;22.00;99.90
7360;DHT22;3720;48.274;7.796;2023-06-22T03:26:47;22.10;99.90
7360;DHT22;3720;48.274;7.796;2023-06-22T03:29:19;22.00;99.90
7360;DHT22;3720;48.274;7.796;2023-06-22T03:31:53;22.10;99.90
7360;DHT22;3720;48.274;7.796;2023-06-22T03:34:24;22.10;99.90
7360;DHT22;3720;48.274;7.796;2023-06-22T03:36:56;22.10;99.90
7360;DHT22;3720;48.274;7.796;2023-06-22T03:39:28;22.00;99.90
7360;DHT22;3720;48.274;7.796;2023-06-22T03:42:00;22.00;99.90
7360;DHT22;3720;48.274;7.796;2023-06-22T03:44:32;21.90;99.90
7360;DHT22;3720;48.274;7.796;2023-06-22T03:47:07;21.90;99.90
7360;DHT22;3720;48.274;7.796;2023-06-22T03:49:40;21.90;99.90
7360;DHT22;3720;48.274;7.796;2023-06-22T03:52:11;21.90;99.90
7360;DHT22;3720;48.274;7.796;2023-06-22T03:54:43;21.90;99.90
7360;DHT22;3720;48.274;7.796;2023-06-22T03:57:15;21.90;99.90
7360;DHT22;3720;48.274;7.796;2023-06-22T03:59:47;22.00;99.90
7360;DHT22;3720;48.274;7.796;2023-06-22T04:02:20;22.00;99.90
7360;DHT22;3720;48.274;7.796;2023-06-22T04:04:52;22.10;99.90
7360;DHT22;3720;48.274;7.796;2023-06-22T04:07:24;22.00;99.90
7360;DHT22;3720;48.274;7.796;2023-06-22T04:09:56;22.00;99.90
7360;DHT22;3720;48.274;7.796;2023-06-22T04:12:27;22.00;99.90
7360;DHT22;3720;48.274;7.796;2023-06-22T04:14:59;22.00;99.90
7360;DHT22;3720;48.274;7.796;2023-06-22T04:17:33;22.10;99.90
7360;DHT22;3720;48.274;7.796;2023-06-22T04:20:06;22.10;99.90
7360;DHT22;3720;48.274;7.796;2023-06-22T04:22:38;22.10;99.90
7360;DHT22;3720;48.274;7.796;2023-06-22T04:25:10;22.10;99.90
7360;DHT22;3720;48.274;7.796;2023-06-22T04:27:42;22.10;99.90
7360;DHT22;3720;48.274;7.796;2023-06-22T04:30:14;22.10;99.90
7360;DHT22;3720;48.274;7.796;2023-06-22T04:32:48;22.10;99.90
7360;DHT22;3720;48.274;7.796;2023-06-22T04:35:26;22.10;99.90
7360;DHT22;3720;48.274;7.796;2023-06-22T04:37:59;22.10;99.90
7360;DHT22;3720;48.274;7.796;2023-06-22T04:40:31;22.00;99.90
7360;DHT22;3720;48.274;7.796;2023-06-22T04:43:02;22.00;99.90
7360;DHT22;3720;48.274;7.796;2023-06-22T04:45:36;22.00;99.90
7360;DHT22;3720;48.274;7.796;2023-06-22T04:48:10;22.10;99.90
7360;DHT22;3720;48.274;7.796;2023-06-22T04:50:46;22.10;99.90
7360;DHT22;3720;48.274;7.796;2023-06-22T04:53:18;22.10;99.90
7360;DHT22;3720;48.274;7.796;2023-06-22T04:55:50;22.10;99.90
7360;DHT22;3720;48.274;7.796;2023-06-22T04:58:23;22.20;99.90
7360;DHT22;3720;48.274;7.796;2023-06-22T05:00:57;22.20;99.90
7360;DHT22;3720;48.274;7.796;2023-06-22T05:03:31;22.20;99.90
7360;DHT22;3720;48.274;7.796;2023-06-22T05:06:03;22.30;99.90
7360;DHT22;3720;48.274;7.796;2023-06-22T05:08:35;22.30;99.90
7360;DHT22;3720;48.274;7.796;2023-06-22T05:11:07;22.30;99.90
7360;DHT22;3720;48.274;7.796;2023-06-22T05:13:39;22.40;99.90
7360;DHT22;3720;48.274;7.796;2023-06-22T05:16:11;22.40;99.90
7360;DHT22;3720;48.274;7.796;2023-06-22T05:18:44;22.40;99.90
7360;DHT22;3720;48.274;7.796;2023-06-22T05:21:16;22.50;99.90
7360;DHT22;3720;48.274;7.796;2023-06-22T05:23:48;22.50;99.90
7360;DHT22;3720;48.274;7.796;2023-06-22T05:26:20;22.50;99.90
7360;DHT22;3720;48.274;7.796;2023-06-22T05:28:53;22.50;99.90
7360;DHT22;3720;48.274;7.796;2023-06-22T05:31:25;22.50;99.90
7360;DHT22;3720;48.274;7.796;2023-06-22T05:33:58;22.60;99.90
7360;DHT22;3720;48.274;7.796;2023-06-22T05:36:31;22.60;99.90
7360;DHT22;3720;48.274;7.796;2023-06-22T05:39:11;22.60;99.90
7360;DHT22;3720;48.274;7.796;2023-06-22T05:41:45;22.70;99.90
7360;DHT22;3720;48.274;7.796;2023-06-22T05:44:17;22.70;99.90
7360;DHT22;3720;48.274;7.796;2023-06-22T05:46:49;22.80;99.90
7360;DHT22;3720;48.274;7.796;2023-06-22T05:49:23;22.80;99.90
7360;DHT22;3720;48.274;7.796;2023-06-22T05:52:00;22.80;99.90
7360;DHT22;3720;48.274;7.796;2023-06-22T05:54:32;22.90;99.90
7360;DHT22;3720;48.274;7.796;2023-06-22T05:57:04;22.90;99.90
7360;DHT22;3720;48.274;7.796;2023-06-22T05:59:36;23.00;99.90
7360;DHT22;3720;48.274;7.796;2023-06-22T06:02:08;23.00;99.90
7360;DHT22;3720;48.274;7.796;2023-06-22T06:04:42;23.10;99.90
7360;DHT22;3720;48.274;7.796;2023-06-22T06:07:14;23.20;99.90
7360;DHT22;3720;48.274;7.796;2023-06-22T06:09:45;23.30;99.90
7360;DHT22;3720;48.274;7.796;2023-06-22T06:12:18;23.20;99.90
7360;DHT22;3720;48.274;7.796;2023-06-22T06:14:50;23.30;99.90
7360;DHT22;3720;48.274;7.796;2023-06-22T06:17:24;23.40;99.90
7360;DHT22;3720;48.274;7.796;2023-06-22T06:19:58;23.40;99.90
7360;DHT22;3720;48.274;7.796;2023-06-22T06:22:31;23.40;99.90
7360;DHT22;3720;48.274;7.796;2023-06-22T06:25:03;23.40;99.90
7360;DHT22;3720;48.274;7.796;2023-06-22T06:27:35;23.40;99.90
7360;DHT22;3720;48.274;7.796;2023-06-22T06:30:08;23.40;99.90
7360;DHT22;3720;48.274;7.796;2023-06-22T06:32:40;23.50;99.90
7360;DHT22;3720;48.274;7.796;2023-06-22T06:35:15;23.60;99.90
7360;DHT22;3720;48.274;7.796;2023-06-22T06:37:49;23.60;99.90
7360;DHT22;3720;48.274;7.796;2023-06-22T06:40:22;23.60;99.90
7360;DHT22;3720;48.274;7.796;2023-06-22T06:42:53;23.70;99.90
7360;DHT22;3720;48.274;7.796;2023-06-22T06:45:26;23.70;99.90
7360;DHT22;3720;48.274;7.796;2023-06-22T06:47:59;23.70;99.90
7360;DHT22;3720;48.274;7.796;2023-06-22T06:50:32;23.70;99.90
7360;DHT22;3720;48.274;7.796;2023-06-22T06:53:04;23.90;99.90
7360;DHT22;3720;48.274;7.796;2023-06-22T06:55:36;23.90;99.90
7360;DHT22;3720;48.274;7.796;2023-06-22T06:58:08;24.00;99.90
7360;DHT22;3720;48.274;7.796;2023-06-22T07:00:42;24.00;99.90
7360;DHT22;3720;48.274;7.796;2023-06-22T07:03:15;23.90;99.90
7360;DHT22;3720;48.274;7.796;2023-06-22T07:05:48;23.80;99.90
7360;DHT22;3720;48.274;7.796;2023-06-22T07:08:20;23.70;99.90
7360;DHT22;3720;48.274;7.796;2023-06-22T07:10:52;23.60;99.90
7360;DHT22;3720;48.274;7.796;2023-06-22T07:13:24;23.50;99.90
7360;DHT22;3720;48.274;7.796;2023-06-22T07:15:56;23.40;99.90
7360;DHT22;3720;48.274;7.796;2023-06-22T07:18:28;23.10;99.90
7360;DHT22;3720;48.274;7.796;2023-06-22T07:21:12;23.00;99.90
7360;DHT22;3720;48.274;7.796;2023-06-22T07:23:44;22.80;99.90
7360;DHT22;3720;48.274;7.796;2023-06-22T07:26:16;22.70;99.90
7360;DHT22;3720;48.274;7.796;2023-06-22T07:28:48;22.60;99.90
7360;DHT22;3720;48.274;7.796;2023-06-22T07:31:21;22.70;99.90
7360;DHT22;3720;48.274;7.796;2023-06-22T07:33:53;22.80;99.90
7360;DHT22;3720;48.274;7.796;2023-06-22T07:36:26;23.00;99.90
7360;DHT22;3720;48.274;7.796;2023-06-22T07:39:00;23.10;99.90
7360;DHT22;3720;48.274;7.796;2023-06-22T07:41:33;23.20;99.90
7360;DHT22;3720;48.274;7.796;2023-06-22T07:44:05;23.00;99.90
7360;DHT22;3720;48.274;7.796;2023-06-22T07:46:38;22.80;99.90
7360;DHT22;3720;48.274;7.796;2023-06-22T07:49:10;22.60;99.90
7360;DHT22;3720;48.274;7.796;2023-06-22T07:51:43;22.50;99.90
7360;DHT22;3720;48.274;7.796;2023-06-22T07:54:15;22.60;99.90
7360;DHT22;3720;48.274;7.796;2023-06-22T07:56:48;22.60;99.90
7360;DHT22;3720;48.274;7.796;2023-06-22T07:59:19;22.60;99.90
7360;DHT22;3720;48.274;7.796;2023-06-22T08:01:51;22.70;99.90
7360;DHT22;3720;48.274;7.796;2023-06-22T08:04:23;22.70;99.90
7360;DHT22;3720;48.274;7.796;2023-06-22T08:06:56;22.60;99.90
7360;DHT22;3720;48.274;7.796;2023-06-22T08:09:29;22.60;99.90
7360;DHT22;3720;48.274;7.796;2023-06-22T08:12:01;22.80;99.90
7360;DHT22;3720;48.274;7.796;2023-06-22T08:14:37;22.90;99.90
7360;DHT22;3720;48.274;7.796;2023-06-22T08:17:09;23.10;99.90
7360;DHT22;3720;48.274;7.796;2023-06-22T08:19:41;23.20;99.90
7360;DHT22;3720;48.274;7.796;2023-06-22T08:22:15;23.40;99.90
7360;DHT22;3720;48.274;7.796;2023-06-22T08:24:48;23.60;99.90
7360;DHT22;3720;48.274;7.796;2023-06-22T08:27:20;23.80;99.90
7360;DHT22;3720;48.274;7.796;2023-06-22T08:29:54;23.90;99.90
7360;DHT22;3720;48.274;7.796;2023-06-22T08:32:28;24.00;99.90
7360;DHT22;3720;48.274;7.796;2023-06-22T08:35:00;24.10;99.90
7360;DHT22;3720;48.274;7.796;2023-06-22T08:37:33;24.40;99.90
7360;DHT22;3720;48.274;7.796;2023-06-22T08:40:07;24.60;99.90
7360;DHT22;3720;48.274;7.796;2023-06-22T08:42:41;24.80;99.90
7360;DHT22;3720;48.274;7.796;2023-06-22T08:45:13;24.90;99.90
7360;DHT22;3720;48.274;7.796;2023-06-22T08:47:46;25.10;99.90
7360;DHT22;3720;48.274;7.796;2023-06-22T08:50:18;25.30;99.90
7360;DHT22;3720;48.274;7.796;2023-06-22T08:52:51;25.40;99.90
7360;DHT22;3720;48.274;7.796;2023-06-22T08:55:23;25.50;99.90
7360;DHT22;3720;48.274;7.796;2023-06-22T08:57:55;25.60;99.90
7360;DHT22;3720;48.274;7.796;2023-06-22T09:00:27;25.60;99.90
7360;DHT22;3720;48.274;7.796;2023-06-22T09:03:03;25.60;99.90
7360;DHT22;3720;48.274;7.796;2023-06-22T09:05:37;25.60;99.90
7360;DHT22;3720;48.274;7.796;2023-06-22T09:08:11;25.70;99.90
7360;DHT22;3720;48.274;7.796;2023-06-22T09:10:42;25.70;99.90
7360;DHT22;3720;48.274;7.796;2023-06-22T09:13:15;25.70;99.90
7360;DHT22;3720;48.274;7.796;2023-06-22T09:15:47;25.80;99.90
7360;DHT22;3720;48.274;7.796;2023-06-22T09:18:19;25.90;99.90
7360;DHT22;3720;48.274;7.796;2023-06-22T09:20:51;26.00;99.90
7360;DHT22;3720;48.274;7.796;2023-06-22T09:23:25;26.10;99.90
7360;DHT22;3720;48.274;7.796;2023-06-22T09:25:57;26.20;99.90
7360;DHT22;3720;48.274;7.796;2023-06-22T09:28:30;26.20;99.90
7360;DHT22;3720;48.274;7.796;2023-06-22T09:31:02;26.30;99.90
7360;DHT22;3720;48.274;7.796;2023-06-22T09:33:33;26.40;99.90
7360;DHT22;3720;48.274;7.796;2023-06-22T09:36:05;26.50;99.90
7360;DHT22;3720;48.274;7.796;2023-06-22T09:38:39;26.60;99.90
7360;DHT22;3720;48.274;7.796;2023-06-22T09:41:13;26.70;99.90
7360;DHT22;3720;48.274;7.796;2023-06-22T09:43:44;26.80;99.90
7360;DHT22;3720;48.274;7.796;2023-06-22T09:46:17;26.90;99.90
7360;DHT22;3720;48.274;7.796;2023-06-22T09:48:49;27.00;99.90
7360;DHT22;3720;48.274;7.796;2023-06-22T09:51:21;27.10;99.90
7360;DHT22;3720;48.274;7.796;2023-06-22T09:53:55;27.30;99.90
7360;DHT22;3720;48.274;7.796;2023-06-22T09:56:28;27.30;99.90
7360;DHT22;3720;48.274;7.796;2023-06-22T09:59:02;27.30;99.90
7360;DHT22;3720;48.274;7.796;2023-06-22T10:01:33;27.20;99.90
7360;DHT22;3720;48.274;7.796;2023-06-22T10:04:05;27.30;99.90
7360;DHT22;3720;48.274;7.796;2023-06-22T10:06:37;27.30;99.90
7360;DHT22;3720;48.274;7.796;2023-06-22T10:09:12;27.50;99.90
7360;DHT22;3720;48.274;7.796;2023-06-22T10:11:44;27.70;99.90
7360;DHT22;3720;48.274;7.796;2023-06-22T10:14:16;28.00;99.90
7360;DHT22;3720;48.274;7.796;2023-06-22T10:16:48;28.20;99.90
7360;DHT22;3720;48.274;7.796;2023-06-22T10:19:20;28.30;99.90
7360;DHT22;3720;48.274;7.796;2023-06-22T10:21:52;28.40;99.90
7360;DHT22;3720;48.274;7.796;2023-06-22T10:24:25;28.50;99.90
7360;DHT22;3720;48.274;7.796;2023-06-22T10:26:57;28.50;99.90
7360;DHT22;3720;48.274;7.796;2023-06-22T10:29:29;28.70;99.90
7360;DHT22;3720;48.274;7.796;2023-06-22T10:32:02;28.90;99.90
7360;DHT22;3720;48.274;7.796;2023-06-22T10:34:33;29.00;99.90
7360;DHT22;3720;48.274;7.796;2023-06-22T10:37:06;29.00;99.90
7360;DHT22;3720;48.274;7.796;2023-06-22T10:39:39;29.10;99.90
7360;DHT22;3720;48.274;7.796;2023-06-22T10:42:12;29.20;99.90
7360;DHT22;3720;48.274;7.796;2023-06-22T10:44:44;29.30;99.90
7360;DHT22;3720;48.274;7.796;2023-06-22T10:47:15;29.30;99.90
7360;DHT22;3720;48.274;7.796;2023-06-22T10:49:47;29.40;99.90
7360;DHT22;3720;48.274;7.796;2023-06-22T10:52:19;29.40;99.90
7360;DHT22;3720;48.274;7.796;2023-06-22T10:54:53;29.40;99.90
7360;DHT22;3720;48.274;7.796;2023-06-22T10:57:25;29.50;99.90
7360;DHT22;3720;48.274;7.796;2023-06-22T10:59:57;29.50;99.90
7360;DHT22;3720;48.274;7.796;2023-06-22T11:02:29;29.50;99.90
7360;DHT22;3720;48.274;7.796;2023-06-22T11:05:01;29.40;99.90
7360;DHT22;3720;48.274;7.796;2023-06-22T11:07:34;29.50;99.90
7360;DHT22;3720;48.274;7.796;2023-06-22T11:10:08;29.50;99.90
7360;DHT22;3720;48.274;7.796;2023-06-22T11:12:40;29.60;99.90
7360;DHT22;3720;48.274;7.796;2023-06-22T11:15:13;29.70;99.90
7360;DHT22;3720;48.274;7.796;2023-06-22T11:17:44;29.90;99.90
7360;DHT22;3720;48.274;7.796;2023-06-22T11:20:17;29.80;99.90
7360;DHT22;3720;48.274;7.796;2023-06-22T11:22:49;29.80;99.90
7360;DHT22;3720;48.274;7.796;2023-06-22T11:25:23;29.80;99.90
7360;DHT22;3720;48.274;7.796;2023-06-22T11:27:55;29.90;99.90
7360;DHT22;3720;48.274;7.796;2023-06-22T11:30:27;30.00;99.90
7360;DHT22;3720;48.274;7.796;2023-06-22T11:32:59;30.00;99.90
7360;DHT22;3720;48.274;7.796;2023-06-22T11:35:31;30.00;99.90
7360;DHT22;3720;48.274;7.796;2023-06-22T11:38:03;30.20;99.90
7360;DHT22;3720;48.274;7.796;2023-06-22T11:40:37;30.30;99.90
7360;DHT22;3720;48.274;7.796;2023-06-22T11:43:09;30.20;99.90
7360;DHT22;3720;48.274;7.796;2023-06-22T11:45:40;30.30;99.90
7360;DHT22;3720;48.274;7.796;2023-06-22T11:48:12;30.30;99.90
7360;DHT22;3720;48.274;7.796;2023-06-22T11:50:44;30.30;99.90
7360;DHT22;3720;48.274;7.796;2023-06-22T11:53:16;30.20;99.90
7360;DHT22;3720;48.274;7.796;2023-06-22T11:55:49;30.20;99.90
7360;DHT22;3720;48.274;7.796;2023-06-22T11:58:22;30.30;99.90
7360;DHT22;3720;48.274;7.796;2023-06-22T12:00:54;30.50;99.90
7360;DHT22;3720;48.274;7.796;2023-06-22T12:03:26;30.70;99.90
7360;DHT22;3720;48.274;7.796;2023-06-22T12:05:59;30.80;99.90
7360;DHT22;3720;48.274;7.796;2023-06-22T12:08:31;31.00;99.90
7360;DHT22;3720;48.274;7.796;2023-06-22T12:11:04;31.10;99.90
7360;DHT22;3720;48.274;7.796;2023-06-22T12:13:36;31.10;99.90
7360;DHT22;3720;48.274;7.796;2023-06-22T12:16:08;31.10;99.90
7360;DHT22;3720;48.274;7.796;2023-06-22T12:18:40;31.10;99.90
7360;DHT22;3720;48.274;7.796;2023-06-22T12:21:12;31.10;99.90
7360;DHT22;3720;48.274;7.796;2023-06-22T12:23:43;31.10;99.90
7360;DHT22;3720;48.274;7.796;2023-06-22T12:26:17;31.00;99.90
7360;DHT22;3720;48.274;7.796;2023-06-22T12:28:49;31.10;99.90
7360;DHT22;3720;48.274;7.796;2023-06-22T12:31:21;31.10;99.90
7360;DHT22;3720;48.274;7.796;2023-06-22T12:33:53;31.20;99.90
7360;DHT22;3720;48.274;7.796;2023-06-22T12:36:25;31.20;99.90
7360;DHT22;3720;48.274;7.796;2023-06-22T12:38:57;31.30;99.90
7360;DHT22;3720;48.274;7.796;2023-06-22T12:41:30;31.40;99.90
7360;DHT22;3720;48.274;7.796;2023-06-22T12:44:02;31.30;99.90
7360;DHT22;3720;48.274;7.796;2023-06-22T12:46:34;31.20;99.90
7360;DHT22;3720;48.274;7.796;2023-06-22T12:49:08;31.10;99.90
7360;DHT22;3720;48.274;7.796;2023-06-22T12:51:40;31.10;99.90
7360;DHT22;3720;48.274;7.796;2023-06-22T12:54:13;30.90;99.90
7360;DHT22;3720;48.274;7.796;2023-06-22T12:56:46;30.70;99.90
7360;DHT22;3720;48.274;7.796;2023-06-22T12:59:18;30.60;99.90
7360;DHT22;3720;48.274;7.796;2023-06-22T13:01:50;30.50;99.90
7360;DHT22;3720;48.274;7.796;2023-06-22T13:04:22;30.50;99.90
7360;DHT22;3720;48.274;7.796;2023-06-22T13:06:54;30.40;99.90
7360;DHT22;3720;48.274;7.796;2023-06-22T13:09:26;30.30;99.90
7360;DHT22;3720;48.274;7.796;2023-06-22T13:11:59;30.20;99.90
7360;DHT22;3720;48.274;7.796;2023-06-22T13:14:32;30.10;99.90
7360;DHT22;3720;48.274;7.796;2023-06-22T13:17:04;30.00;99.90
7360;DHT22;3720;48.274;7.796;2023-06-22T13:19:36;29.90;99.90
7360;DHT22;3720;48.274;7.796;2023-06-22T13:22:26;29.80;99.90
7360;DHT22;3720;48.274;7.796;2023-06-22T13:24:59;29.60;99.90
7360;DHT22;3720;48.274;7.796;2023-06-22T13:27:34;29.50;99.90
7360;DHT22;3720;48.274;7.796;2023-06-22T13:30:07;29.40;99.90
7360;DHT22;3720;48.274;7.796;2023-06-22T13:32:39;29.50;99.90
7360;DHT22;3720;48.274;7.796;2023-06-22T13:35:12;29.50;99.90
7360;DHT22;3720;48.274;7.796;2023-06-22T13:37:44;29.70;99.90
7360;DHT22;3720;48.274;7.796;2023-06-22T13:40:15;30.00;99.90
7360;DHT22;3720;48.274;7.796;2023-06-22T13:42:49;30.30;99.90
7360;DHT22;3720;48.274;7.796;2023-06-22T13:45:21;30.30;99.90
7360;DHT22;3720;48.274;7.796;2023-06-22T13:47:54;30.30;99.90
7360;DHT22;3720;48.274;7.796;2023-06-22T13:50:26;30.20;99.90
7360;DHT22;3720;48.274;7.796;2023-06-22T13:52:59;30.20;99.90
7360;DHT22;3720;48.274;7.796;2023-06-22T13:55:31;30.20;99.90
7360;DHT22;3720;48.274;7.796;2023-06-22T13:58:04;30.50;99.90
7360;DHT22;3720;48.274;7.796;2023-06-22T14:00:36;30.70;99.90
7360;DHT22;3720;48.274;7.796;2023-06-22T14:03:08;30.90;99.90
7360;DHT22;3720;48.274;7.796;2023-06-22T14:05:41;31.00;99.90
7360;DHT22;3720;48.274;7.796;2023-06-22T14:08:13;31.00;99.90
7360;DHT22;3720;48.274;7.796;2023-06-22T14:10:45;30.70;99.90
7360;DHT22;3720;48.274;7.796;2023-06-22T14:13:19;30.60;99.90
7360;DHT22;3720;48.274;7.796;2023-06-22T14:15:50;30.50;99.90
7360;DHT22;3720;48.274;7.796;2023-06-22T14:18:24;30.30;99.90
7360;DHT22;3720;48.274;7.796;2023-06-22T14:20:56;30.10;99.90
7360;DHT22;3720;48.274;7.796;2023-06-22T14:23:28;30.20;99.90
7360;DHT22;3720;48.274;7.796;2023-06-22T14:26:00;30.30;99.90
7360;DHT22;3720;48.274;7.796;2023-06-22T14:28:33;30.50;99.90
7360;DHT22;3720;48.274;7.796;2023-06-22T14:31:05;30.50;99.90
7360;DHT22;3720;48.274;7.796;2023-06-22T14:33:37;30.20;99.90
7360;DHT22;3720;48.274;7.796;2023-06-22T14:36:09;30.00;99.90
7360;DHT22;3720;48.274;7.796;2023-06-22T14:38:41;29.70;99.90
7360;DHT22;3720;48.274;7.796;2023-06-22T14:41:13;29.50;99.90
7360;DHT22;3720;48.274;7.796;2023-06-22T14:43:50;29.40;99.90
7360;DHT22;3720;48.274;7.796;2023-06-22T14:46:22;29.70;99.90
7360;DHT22;3720;48.274;7.796;2023-06-22T14:48:54;29.90;99.90
7360;DHT22;3720;48.274;7.796;2023-06-22T14:51:26;30.10;99.90
7360;DHT22;3720;48.274;7.796;2023-06-22T14:53:58;30.20;99.90
7360;DHT22;3720;48.274;7.796;2023-06-22T14:56:30;30.30;99.90
7360;DHT22;3720;48.274;7.796;2023-06-22T14:59:03;30.30;99.90
7360;DHT22;3720;48.274;7.796;2023-06-22T15:01:35;30.50;99.90
7360;DHT22;3720;48.274;7.796;2023-06-22T15:04:07;30.60;99.90
7360;DHT22;3720;48.274;7.796;2023-06-22T15:06:39;30.60;99.90
7360;DHT22;3720;48.274;7.796;2023-06-22T15:09:11;30.70;99.90
7360;DHT22;3720;48.274;7.796;2023-06-22T15:11:43;30.80;99.90
7360;DHT22;3720;48.274;7.796;2023-06-22T15:14:17;30.80;99.90
7360;DHT22;3720;48.274;7.796;2023-06-22T15:16:49;30.60;99.90
7360;DHT22;3720;48.274;7.796;2023-06-22T15:19:21;30.70;99.90
7360;DHT22;3720;48.274;7.796;2023-06-22T15:22:04;30.90;99.90
7360;DHT22;3720;48.274;7.796;2023-06-22T15:24:36;31.00;99.90
7360;DHT22;3720;48.274;7.796;2023-06-22T15:27:08;31.00;99.90
7360;DHT22;3720;48.274;7.796;2023-06-22T15:29:41;31.20;99.90
7360;DHT22;3720;48.274;7.796;2023-06-22T15:32:13;31.40;99.90
7360;DHT22;3720;48.274;7.796;2023-06-22T15:34:45;31.40;99.90
7360;DHT22;3720;48.274;7.796;2023-06-22T15:37:17;31.30;99.90
7360;DHT22;3720;48.274;7.796;2023-06-22T15:39:49;31.30;99.90
7360;DHT22;3720;48.274;7.796;2023-06-22T15:42:21;31.30;99.90
7360;DHT22;3720;48.274;7.796;2023-06-22T15:44:54;31.20;99.90
7360;DHT22;3720;48.274;7.796;2023-06-22T15:47:26;31.20;99.90
7360;DHT22;3720;48.274;7.796;2023-06-22T15:49:58;31.40;99.90
7360;DHT22;3720;48.274;7.796;2023-06-22T15:52:30;31.50;99.90
7360;DHT22;3720;48.274;7.796;2023-06-22T15:55:03;31.40;99.90
7360;DHT22;3720;48.274;7.796;2023-06-22T15:57:35;31.30;99.90
7360;DHT22;3720;48.274;7.796;2023-06-22T16:00:10;30.90;99.90
7360;DHT22;3720;48.274;7.796;2023-06-22T16:02:45;30.70;99.90
7360;DHT22;3720;48.274;7.796;2023-06-22T16:05:18;30.50;99.90
7360;DHT22;3720;48.274;7.796;2023-06-22T16:07:49;30.50;99.90
7360;DHT22;3720;48.274;7.796;2023-06-22T16:10:21;30.20;99.90
7360;DHT22;3720;48.274;7.796;2023-06-22T16:12:53;30.00;99.90
7360;DHT22;3720;48.274;7.796;2023-06-22T16:15:27;29.90;99.90
7360;DHT22;3720;48.274;7.796;2023-06-22T16:17:59;29.80;99.90
7360;DHT22;3720;48.274;7.796;2023-06-22T16:20:31;29.90;99.90
7360;DHT22;3720;48.274;7.796;2023-06-22T16:23:03;30.00;99.90
7360;DHT22;3720;48.274;7.796;2023-06-22T16:25:35;29.90;99.90
7360;DHT22;3720;48.274;7.796;2023-06-22T16:28:06;29.80;99.90
7360;DHT22;3720;48.274;7.796;2023-06-22T16:30:40;29.70;99.90
7360;DHT22;3720;48.274;7.796;2023-06-22T16:33:12;29.60;99.90
7360;DHT22;3720;48.274;7.796;2023-06-22T16:35:44;29.40;99.90
7360;DHT22;3720;48.274;7.796;2023-06-22T16:38:16;29.40;99.90